Startpagina
METAR-TAF:

METAR-TAF

Vliegvelden :

Kosrae, Micronesië

breedte: 05-21N, lengte: 162-57E, hoogte: 3 m

Actueel weer

Dit bericht is 17 uur en het 22 minuten geleden gemaakt, om 00:50 UTC
Wind 3 kt uit het oosten
Temperatuur 26°C
Vochtigheid 89%
Druk 1009 hPa
Zicht: 16.1 km
Gebroken wolken op 1400 ft, Stapelwolken.
Gebroken wolken op 13000 ft
Geheel bewolkt op 30000 ft
buien in de omgeving

METAR: PTSA 120050Z COR 09003KT 10SM VCSH BKN014TCU BKN130 OVC300 26/24 A2980 RMK VCSH NW-N TCU W-NE LAST

Tijdstip: 05:12 (18:12 UTC)

Verwachting

Dit bericht is 18 uur en het 38 minuten geleden gemaakt, om 23:34 UTC
Verwachting geldig van 12 om 00 UTC tot 12 om 24 UTC
Wind 12 kt uit het oosten
Zicht: 10 km
Verspreide wolken op 1700 ft
Gebroken wolken op 12000 ft
buien in de omgeving
Tijdelijke
van 12 om 00 UTC tot 12 om 02 UTC
Zicht: 3.2 km
Gebroken wolken op 1400 ft
Geheel bewolkt op 4000 ft
zware regenbuien

TAF: PTSA 112334Z 1200/1224 10012KT P6SM VCSH SCT017 BKN120 TEMPO 1200/1202 2SM +SHRA BKN014 OVC040

Waarnemingen en weersverwachtingen van meer dan 4000 vliegvelden (METAR en TAF).

De beschikbare stations zijn de gele en rode punten op de kaart.

Ga met uw muis naar het station om de naam te zien.

Klik dan om waarnemingen en weersverwachtingen te zien.

kaart wijzigen: klik op de groene knoppen met een zwart kruis om in te zoomen, op de groene knop met een streepje om uit te zoomen of op de groene pijlen voor aangrenzende kaarten.


METAR-TAF: